sensor_id;sensor_type;location;lat;lon;timestamp;P1;durP1;ratioP1;P2;durP2;ratioP2
3447;SDS011;1738;49.500;17.736;2023-12-28T00:00:05;13.50;;;7.98;;
3447;SDS011;1738;49.500;17.736;2023-12-28T00:02:31;10.90;;;6.27;;
3447;SDS011;1738;49.500;17.736;2023-12-28T00:04:57;15.57;;;10.20;;
3447;SDS011;1738;49.500;17.736;2023-12-28T00:07:23;20.05;;;7.15;;
3447;SDS011;1738;49.500;17.736;2023-12-28T00:09:48;12.90;;;7.40;;
3447;SDS011;1738;49.500;17.736;2023-12-28T00:12:14;17.80;;;10.23;;
3447;SDS011;1738;49.500;17.736;2023-12-28T00:14:40;14.77;;;10.37;;
3447;SDS011;1738;49.500;17.736;2023-12-28T00:17:06;15.43;;;9.67;;
3447;SDS011;1738;49.500;17.736;2023-12-28T00:19:32;14.93;;;9.33;;
3447;SDS011;1738;49.500;17.736;2023-12-28T00:21:58;13.80;;;10.20;;
3447;SDS011;1738;49.500;17.736;2023-12-28T00:24:23;13.70;;;9.17;;
3447;SDS011;1738;49.500;17.736;2023-12-28T00:26:49;18.50;;;9.13;;
3447;SDS011;1738;49.500;17.736;2023-12-28T00:29:15;16.50;;;9.97;;
3447;SDS011;1738;49.500;17.736;2023-12-28T00:31:41;17.00;;;9.53;;
3447;SDS011;1738;49.500;17.736;2023-12-28T00:34:07;16.10;;;9.90;;
3447;SDS011;1738;49.500;17.736;2023-12-28T00:36:33;12.60;;;8.53;;
3447;SDS011;1738;49.500;17.736;2023-12-28T00:38:59;14.75;;;9.25;;
3447;SDS011;1738;49.500;17.736;2023-12-28T00:41:24;13.23;;;9.47;;
3447;SDS011;1738;49.500;17.736;2023-12-28T00:43:50;17.80;;;10.27;;
3447;SDS011;1738;49.500;17.736;2023-12-28T00:46:16;13.80;;;9.40;;
3447;SDS011;1738;49.500;17.736;2023-12-28T00:48:42;15.60;;;9.60;;
3447;SDS011;1738;49.500;17.736;2023-12-28T00:51:08;20.40;;;9.83;;
3447;SDS011;1738;49.500;17.736;2023-12-28T00:53:34;19.00;;;10.50;;
3447;SDS011;1738;49.500;17.736;2023-12-28T00:56:00;15.17;;;9.70;;
3447;SDS011;1738;49.500;17.736;2023-12-28T00:58:25;15.63;;;9.50;;
3447;SDS011;1738;49.500;17.736;2023-12-28T01:00:51;16.30;;;8.93;;
3447;SDS011;1738;49.500;17.736;2023-12-28T01:03:17;17.07;;;8.53;;
3447;SDS011;1738;49.500;17.736;2023-12-28T01:05:43;15.43;;;7.53;;
3447;SDS011;1738;49.500;17.736;2023-12-28T01:08:09;14.37;;;8.53;;
3447;SDS011;1738;49.500;17.736;2023-12-28T01:10:34;17.62;;;8.13;;
3447;SDS011;1738;49.500;17.736;2023-12-28T01:13:00;14.07;;;7.70;;
3447;SDS011;1738;49.500;17.736;2023-12-28T01:15:26;16.37;;;7.87;;
3447;SDS011;1738;49.500;17.736;2023-12-28T01:17:52;9.40;;;6.93;;
3447;SDS011;1738;49.500;17.736;2023-12-28T01:20:18;10.50;;;6.97;;
3447;SDS011;1738;49.500;17.736;2023-12-28T01:22:44;18.50;;;6.93;;
3447;SDS011;1738;49.500;17.736;2023-12-28T01:25:10;12.27;;;7.00;;
3447;SDS011;1738;49.500;17.736;2023-12-28T01:27:35;10.07;;;6.47;;
3447;SDS011;1738;49.500;17.736;2023-12-28T01:30:01;12.53;;;6.53;;
3447;SDS011;1738;49.500;17.736;2023-12-28T01:32:27;13.43;;;7.90;;
3447;SDS011;1738;49.500;17.736;2023-12-28T01:34:53;12.07;;;6.03;;
3447;SDS011;1738;49.500;17.736;2023-12-28T01:37:19;14.13;;;8.23;;
3447;SDS011;1738;49.500;17.736;2023-12-28T01:39:45;14.47;;;7.30;;
3447;SDS011;1738;49.500;17.736;2023-12-28T01:42:10;12.80;;;8.00;;
3447;SDS011;1738;49.500;17.736;2023-12-28T01:44:36;11.40;;;6.90;;
3447;SDS011;1738;49.500;17.736;2023-12-28T01:47:02;11.43;;;6.82;;
3447;SDS011;1738;49.500;17.736;2023-12-28T01:49:28;13.00;;;8.30;;
3447;SDS011;1738;49.500;17.736;2023-12-28T01:51:54;12.87;;;7.77;;
3447;SDS011;1738;49.500;17.736;2023-12-28T01:54:20;21.03;;;8.63;;
3447;SDS011;1738;49.500;17.736;2023-12-28T01:56:46;13.27;;;8.00;;
3447;SDS011;1738;49.500;17.736;2023-12-28T01:59:11;12.90;;;8.18;;
3447;SDS011;1738;49.500;17.736;2023-12-28T02:01:37;18.40;;;8.23;;
3447;SDS011;1738;49.500;17.736;2023-12-28T02:04:03;12.90;;;7.20;;
3447;SDS011;1738;49.500;17.736;2023-12-28T02:06:29;14.67;;;8.60;;
3447;SDS011;1738;49.500;17.736;2023-12-28T02:08:55;13.60;;;8.00;;
3447;SDS011;1738;49.500;17.736;2023-12-28T02:11:21;11.67;;;7.53;;
3447;SDS011;1738;49.500;17.736;2023-12-28T02:13:46;17.00;;;8.17;;
3447;SDS011;1738;49.500;17.736;2023-12-28T02:16:15;14.37;;;9.17;;
3447;SDS011;1738;49.500;17.736;2023-12-28T02:18:41;11.47;;;7.17;;
3447;SDS011;1738;49.500;17.736;2023-12-28T02:21:06;12.33;;;8.20;;
3447;SDS011;1738;49.500;17.736;2023-12-28T02:23:32;13.80;;;8.27;;
3447;SDS011;1738;49.500;17.736;2023-12-28T02:25:56;12.07;;;8.23;;
3447;SDS011;1738;49.500;17.736;2023-12-28T02:28:22;17.27;;;8.47;;
3447;SDS011;1738;49.500;17.736;2023-12-28T02:30:48;21.40;;;9.40;;
3447;SDS011;1738;49.500;17.736;2023-12-28T02:33:23;11.20;;;7.17;;
3447;SDS011;1738;49.500;17.736;2023-12-28T02:35:48;14.90;;;9.07;;
3447;SDS011;1738;49.500;17.736;2023-12-28T02:38:12;13.07;;;7.95;;
3447;SDS011;1738;49.500;17.736;2023-12-28T02:40:38;13.17;;;8.77;;
3447;SDS011;1738;49.500;17.736;2023-12-28T02:43:03;17.53;;;8.80;;
3447;SDS011;1738;49.500;17.736;2023-12-28T02:45:29;14.50;;;8.20;;
3447;SDS011;1738;49.500;17.736;2023-12-28T02:47:55;15.50;;;9.50;;
3447;SDS011;1738;49.500;17.736;2023-12-28T02:50:21;14.83;;;8.23;;
3447;SDS011;1738;49.500;17.736;2023-12-28T02:52:46;13.03;;;8.43;;
3447;SDS011;1738;49.500;17.736;2023-12-28T02:55:12;11.90;;;8.07;;
3447;SDS011;1738;49.500;17.736;2023-12-28T02:57:38;13.50;;;8.20;;
3447;SDS011;1738;49.500;17.736;2023-12-28T03:00:04;12.70;;;8.73;;
3447;SDS011;1738;49.500;17.736;2023-12-28T03:02:30;13.27;;;8.50;;
3447;SDS011;1738;49.500;17.736;2023-12-28T03:04:56;18.03;;;8.27;;
3447;SDS011;1738;49.500;17.736;2023-12-28T03:07:22;14.63;;;8.70;;
3447;SDS011;1738;49.500;17.736;2023-12-28T03:09:48;14.20;;;8.57;;
3447;SDS011;1738;49.500;17.736;2023-12-28T03:12:14;15.63;;;9.37;;
3447;SDS011;1738;49.500;17.736;2023-12-28T03:14:40;16.23;;;8.70;;
3447;SDS011;1738;49.500;17.736;2023-12-28T03:17:05;15.53;;;9.87;;
3447;SDS011;1738;49.500;17.736;2023-12-28T03:19:31;15.80;;;9.00;;
3447;SDS011;1738;49.500;17.736;2023-12-28T03:21:57;15.40;;;9.77;;
3447;SDS011;1738;49.500;17.736;2023-12-28T03:24:23;16.23;;;9.00;;
3447;SDS011;1738;49.500;17.736;2023-12-28T03:26:49;15.07;;;8.97;;
3447;SDS011;1738;49.500;17.736;2023-12-28T03:29:15;16.90;;;9.50;;
3447;SDS011;1738;49.500;17.736;2023-12-28T03:31:40;16.48;;;8.45;;
3447;SDS011;1738;49.500;17.736;2023-12-28T03:34:06;15.20;;;8.70;;
3447;SDS011;1738;49.500;17.736;2023-12-28T03:36:32;16.42;;;9.30;;
3447;SDS011;1738;49.500;17.736;2023-12-28T03:38:58;13.13;;;8.70;;
3447;SDS011;1738;49.500;17.736;2023-12-28T03:41:24;17.37;;;9.00;;
3447;SDS011;1738;49.500;17.736;2023-12-28T03:43:50;16.53;;;10.03;;
3447;SDS011;1738;49.500;17.736;2023-12-28T03:46:15;13.50;;;9.17;;
3447;SDS011;1738;49.500;17.736;2023-12-28T03:48:41;17.70;;;9.40;;
3447;SDS011;1738;49.500;17.736;2023-12-28T03:51:07;18.43;;;9.60;;
3447;SDS011;1738;49.500;17.736;2023-12-28T03:53:33;16.80;;;9.40;;
3447;SDS011;1738;49.500;17.736;2023-12-28T03:55:59;18.80;;;10.07;;
3447;SDS011;1738;49.500;17.736;2023-12-28T03:58:25;15.57;;;10.07;;
3447;SDS011;1738;49.500;17.736;2023-12-28T04:00:51;19.35;;;8.80;;
3447;SDS011;1738;49.500;17.736;2023-12-28T04:03:17;19.70;;;10.10;;
3447;SDS011;1738;49.500;17.736;2023-12-28T04:05:43;16.63;;;10.20;;
3447;SDS011;1738;49.500;17.736;2023-12-28T04:08:08;14.85;;;9.80;;
3447;SDS011;1738;49.500;17.736;2023-12-28T04:10:34;14.70;;;9.10;;
3447;SDS011;1738;49.500;17.736;2023-12-28T04:13:00;13.20;;;9.00;;
3447;SDS011;1738;49.500;17.736;2023-12-28T04:15:26;17.63;;;10.00;;
3447;SDS011;1738;49.500;17.736;2023-12-28T04:17:52;20.10;;;10.57;;
3447;SDS011;1738;49.500;17.736;2023-12-28T04:20:17;26.93;;;12.20;;
3447;SDS011;1738;49.500;17.736;2023-12-28T04:22:43;16.80;;;8.90;;
3447;SDS011;1738;49.500;17.736;2023-12-28T04:25:09;14.75;;;8.88;;
3447;SDS011;1738;49.500;17.736;2023-12-28T04:27:35;17.07;;;9.03;;
3447;SDS011;1738;49.500;17.736;2023-12-28T04:30:01;14.60;;;7.93;;
3447;SDS011;1738;49.500;17.736;2023-12-28T04:32:27;14.37;;;9.53;;
3447;SDS011;1738;49.500;17.736;2023-12-28T04:34:53;16.80;;;9.87;;
3447;SDS011;1738;49.500;17.736;2023-12-28T04:37:19;16.90;;;9.40;;
3447;SDS011;1738;49.500;17.736;2023-12-28T04:39:45;17.27;;;9.00;;
3447;SDS011;1738;49.500;17.736;2023-12-28T04:42:11;16.90;;;8.30;;
3447;SDS011;1738;49.500;17.736;2023-12-28T04:44:37;14.10;;;8.70;;
3447;SDS011;1738;49.500;17.736;2023-12-28T04:47:02;14.30;;;9.70;;
3447;SDS011;1738;49.500;17.736;2023-12-28T04:49:28;16.33;;;9.67;;
3447;SDS011;1738;49.500;17.736;2023-12-28T04:51:54;20.70;;;9.40;;
3447;SDS011;1738;49.500;17.736;2023-12-28T04:54:20;14.80;;;7.53;;
3447;SDS011;1738;49.500;17.736;2023-12-28T04:56:46;15.83;;;8.13;;
3447;SDS011;1738;49.500;17.736;2023-12-28T04:59:12;16.37;;;9.37;;
3447;SDS011;1738;49.500;17.736;2023-12-28T05:01:41;16.27;;;10.67;;
3447;SDS011;1738;49.500;17.736;2023-12-28T05:04:06;18.30;;;10.10;;
3447;SDS011;1738;49.500;17.736;2023-12-28T05:06:32;16.83;;;9.10;;
3447;SDS011;1738;49.500;17.736;2023-12-28T05:08:58;20.23;;;10.20;;
3447;SDS011;1738;49.500;17.736;2023-12-28T05:11:24;15.20;;;9.47;;
3447;SDS011;1738;49.500;17.736;2023-12-28T05:13:49;13.57;;;8.97;;
3447;SDS011;1738;49.500;17.736;2023-12-28T05:16:15;19.23;;;10.43;;
3447;SDS011;1738;49.500;17.736;2023-12-28T05:18:41;18.63;;;10.40;;
3447;SDS011;1738;49.500;17.736;2023-12-28T05:21:07;25.60;;;10.25;;
3447;SDS011;1738;49.500;17.736;2023-12-28T05:23:33;11.50;;;8.90;;
3447;SDS011;1738;49.500;17.736;2023-12-28T05:25:59;18.13;;;10.67;;
3447;SDS011;1738;49.500;17.736;2023-12-28T05:28:24;13.50;;;9.43;;
3447;SDS011;1738;49.500;17.736;2023-12-28T05:30:50;16.17;;;9.40;;
3447;SDS011;1738;49.500;17.736;2023-12-28T05:33:16;15.00;;;8.77;;
3447;SDS011;1738;49.500;17.736;2023-12-28T05:35:42;19.57;;;11.37;;
3447;SDS011;1738;49.500;17.736;2023-12-28T05:38:08;18.50;;;9.80;;
3447;SDS011;1738;49.500;17.736;2023-12-28T05:40:34;17.80;;;8.57;;
3447;SDS011;1738;49.500;17.736;2023-12-28T05:42:59;15.40;;;8.97;;
3447;SDS011;1738;49.500;17.736;2023-12-28T05:45:25;13.80;;;9.40;;
3447;SDS011;1738;49.500;17.736;2023-12-28T05:47:51;16.67;;;9.03;;
3447;SDS011;1738;49.500;17.736;2023-12-28T05:50:17;15.27;;;9.70;;
3447;SDS011;1738;49.500;17.736;2023-12-28T05:52:43;19.33;;;10.40;;
3447;SDS011;1738;49.500;17.736;2023-12-28T05:55:09;21.33;;;10.70;;
3447;SDS011;1738;49.500;17.736;2023-12-28T05:57:35;27.10;;;10.53;;
3447;SDS011;1738;49.500;17.736;2023-12-28T06:00:00;15.87;;;9.90;;
3447;SDS011;1738;49.500;17.736;2023-12-28T06:02:26;16.17;;;11.23;;
3447;SDS011;1738;49.500;17.736;2023-12-28T06:04:52;17.27;;;10.50;;
3447;SDS011;1738;49.500;17.736;2023-12-28T06:07:18;16.33;;;9.40;;
3447;SDS011;1738;49.500;17.736;2023-12-28T06:09:44;15.70;;;9.80;;
3447;SDS011;1738;49.500;17.736;2023-12-28T06:12:10;16.10;;;9.10;;
3447;SDS011;1738;49.500;17.736;2023-12-28T06:14:36;17.00;;;11.23;;
3447;SDS011;1738;49.500;17.736;2023-12-28T06:17:01;19.60;;;11.73;;
3447;SDS011;1738;49.500;17.736;2023-12-28T06:19:27;18.90;;;10.40;;
3447;SDS011;1738;49.500;17.736;2023-12-28T06:21:53;20.27;;;11.20;;
3447;SDS011;1738;49.500;17.736;2023-12-28T06:24:19;16.00;;;11.30;;
3447;SDS011;1738;49.500;17.736;2023-12-28T06:26:45;17.70;;;11.00;;
3447;SDS011;1738;49.500;17.736;2023-12-28T06:29:11;14.80;;;9.53;;
3447;SDS011;1738;49.500;17.736;2023-12-28T06:31:36;21.43;;;11.07;;
3447;SDS011;1738;49.500;17.736;2023-12-28T06:34:03;17.27;;;11.20;;
3447;SDS011;1738;49.500;17.736;2023-12-28T06:36:28;16.10;;;10.77;;
3447;SDS011;1738;49.500;17.736;2023-12-28T06:38:54;15.50;;;10.07;;
3447;SDS011;1738;49.500;17.736;2023-12-28T06:41:20;17.07;;;10.97;;
3447;SDS011;1738;49.500;17.736;2023-12-28T06:43:46;16.20;;;10.43;;
3447;SDS011;1738;49.500;17.736;2023-12-28T06:46:11;19.17;;;11.17;;
3447;SDS011;1738;49.500;17.736;2023-12-28T06:48:37;18.30;;;10.90;;
3447;SDS011;1738;49.500;17.736;2023-12-28T06:51:03;18.37;;;11.75;;
3447;SDS011;1738;49.500;17.736;2023-12-28T06:53:29;19.00;;;10.37;;
3447;SDS011;1738;49.500;17.736;2023-12-28T06:55:55;21.53;;;11.60;;
3447;SDS011;1738;49.500;17.736;2023-12-28T06:58:21;16.70;;;9.90;;
3447;SDS011;1738;49.500;17.736;2023-12-28T07:00:47;15.70;;;10.23;;
3447;SDS011;1738;49.500;17.736;2023-12-28T07:03:13;17.40;;;10.80;;
3447;SDS011;1738;49.500;17.736;2023-12-28T07:05:38;15.13;;;10.50;;
3447;SDS011;1738;49.500;17.736;2023-12-28T07:08:04;19.40;;;11.60;;
3447;SDS011;1738;49.500;17.736;2023-12-28T07:10:30;20.77;;;11.80;;
3447;SDS011;1738;49.500;17.736;2023-12-28T07:12:56;17.27;;;10.63;;
3447;SDS011;1738;49.500;17.736;2023-12-28T07:15:22;16.10;;;10.30;;
3447;SDS011;1738;49.500;17.736;2023-12-28T07:17:48;20.60;;;10.80;;
3447;SDS011;1738;49.500;17.736;2023-12-28T07:20:14;17.10;;;11.50;;
3447;SDS011;1738;49.500;17.736;2023-12-28T07:22:40;25.00;;;11.93;;
3447;SDS011;1738;49.500;17.736;2023-12-28T07:25:06;20.50;;;12.23;;
3447;SDS011;1738;49.500;17.736;2023-12-28T07:27:32;16.63;;;11.10;;
3447;SDS011;1738;49.500;17.736;2023-12-28T07:29:57;21.12;;;11.50;;
3447;SDS011;1738;49.500;17.736;2023-12-28T07:32:23;23.33;;;11.60;;
3447;SDS011;1738;49.500;17.736;2023-12-28T07:34:49;20.20;;;11.57;;
3447;SDS011;1738;49.500;17.736;2023-12-28T07:37:15;18.77;;;10.95;;
3447;SDS011;1738;49.500;17.736;2023-12-28T07:39:41;19.67;;;11.77;;
3447;SDS011;1738;49.500;17.736;2023-12-28T07:42:07;26.93;;;12.90;;
3447;SDS011;1738;49.500;17.736;2023-12-28T07:44:33;18.57;;;11.10;;
3447;SDS011;1738;49.500;17.736;2023-12-28T07:46:59;20.57;;;10.40;;
3447;SDS011;1738;49.500;17.736;2023-12-28T07:49:24;15.30;;;9.60;;
3447;SDS011;1738;49.500;17.736;2023-12-28T07:51:50;16.23;;;9.43;;
3447;SDS011;1738;49.500;17.736;2023-12-28T07:54:16;18.43;;;9.43;;
3447;SDS011;1738;49.500;17.736;2023-12-28T07:56:42;17.80;;;11.23;;
3447;SDS011;1738;49.500;17.736;2023-12-28T07:59:08;15.77;;;9.48;;
3447;SDS011;1738;49.500;17.736;2023-12-28T08:01:34;28.40;;;11.07;;
3447;SDS011;1738;49.500;17.736;2023-12-28T08:04:00;16.93;;;11.90;;
3447;SDS011;1738;49.500;17.736;2023-12-28T08:06:25;15.40;;;10.27;;
3447;SDS011;1738;49.500;17.736;2023-12-28T08:08:51;17.87;;;9.00;;
3447;SDS011;1738;49.500;17.736;2023-12-28T08:11:17;19.10;;;9.00;;
3447;SDS011;1738;49.500;17.736;2023-12-28T08:13:43;17.20;;;8.90;;
3447;SDS011;1738;49.500;17.736;2023-12-28T08:16:09;20.10;;;8.30;;
3447;SDS011;1738;49.500;17.736;2023-12-28T08:18:35;20.05;;;9.57;;
3447;SDS011;1738;49.500;17.736;2023-12-28T08:21:00;14.87;;;7.60;;
3447;SDS011;1738;49.500;17.736;2023-12-28T08:23:26;12.73;;;8.17;;
3447;SDS011;1738;49.500;17.736;2023-12-28T08:25:52;14.00;;;8.87;;
3447;SDS011;1738;49.500;17.736;2023-12-28T08:28:19;18.80;;;8.20;;
3447;SDS011;1738;49.500;17.736;2023-12-28T08:30:45;14.80;;;7.80;;
3447;SDS011;1738;49.500;17.736;2023-12-28T08:33:11;10.27;;;7.43;;
3447;SDS011;1738;49.500;17.736;2023-12-28T08:35:36;14.93;;;6.70;;
3447;SDS011;1738;49.500;17.736;2023-12-28T08:38:02;13.87;;;9.07;;
3447;SDS011;1738;49.500;17.736;2023-12-28T08:40:28;15.40;;;9.60;;
3447;SDS011;1738;49.500;17.736;2023-12-28T08:42:54;15.87;;;9.57;;
3447;SDS011;1738;49.500;17.736;2023-12-28T08:45:20;12.07;;;6.10;;
3447;SDS011;1738;49.500;17.736;2023-12-28T08:47:46;16.13;;;9.10;;
3447;SDS011;1738;49.500;17.736;2023-12-28T08:50:12;16.53;;;10.10;;
3447;SDS011;1738;49.500;17.736;2023-12-28T08:52:37;12.20;;;8.80;;
3447;SDS011;1738;49.500;17.736;2023-12-28T08:55:04;22.10;;;9.97;;
3447;SDS011;1738;49.500;17.736;2023-12-28T08:57:30;14.65;;;9.07;;
3447;SDS011;1738;49.500;17.736;2023-12-28T08:59:56;28.83;;;9.07;;
3447;SDS011;1738;49.500;17.736;2023-12-28T09:02:22;18.37;;;9.50;;
3447;SDS011;1738;49.500;17.736;2023-12-28T09:04:48;23.27;;;13.65;;
3447;SDS011;1738;49.500;17.736;2023-12-28T09:07:13;33.40;;;18.23;;
3447;SDS011;1738;49.500;17.736;2023-12-28T09:09:40;24.45;;;14.32;;
3447;SDS011;1738;49.500;17.736;2023-12-28T09:12:05;22.00;;;10.13;;
3447;SDS011;1738;49.500;17.736;2023-12-28T09:14:31;24.10;;;13.50;;
3447;SDS011;1738;49.500;17.736;2023-12-28T09:16:57;23.48;;;12.32;;
3447;SDS011;1738;49.500;17.736;2023-12-28T09:19:23;22.67;;;14.37;;
3447;SDS011;1738;49.500;17.736;2023-12-28T09:21:49;21.60;;;11.40;;
3447;SDS011;1738;49.500;17.736;2023-12-28T09:24:15;23.93;;;13.30;;
3447;SDS011;1738;49.500;17.736;2023-12-28T09:26:41;18.53;;;10.20;;
3447;SDS011;1738;49.500;17.736;2023-12-28T09:29:06;19.27;;;12.43;;
3447;SDS011;1738;49.500;17.736;2023-12-28T09:31:32;16.03;;;10.43;;
3447;SDS011;1738;49.500;17.736;2023-12-28T09:33:58;19.17;;;11.10;;
3447;SDS011;1738;49.500;17.736;2023-12-28T09:36:24;14.60;;;9.57;;
3447;SDS011;1738;49.500;17.736;2023-12-28T09:38:50;15.37;;;9.20;;
3447;SDS011;1738;49.500;17.736;2023-12-28T09:41:16;22.30;;;12.97;;
3447;SDS011;1738;49.500;17.736;2023-12-28T09:43:48;13.77;;;10.23;;
3447;SDS011;1738;49.500;17.736;2023-12-28T09:46:11;21.15;;;11.70;;
3447;SDS011;1738;49.500;17.736;2023-12-28T09:48:37;18.10;;;11.53;;
3447;SDS011;1738;49.500;17.736;2023-12-28T09:51:03;16.10;;;11.30;;
3447;SDS011;1738;49.500;17.736;2023-12-28T09:53:29;17.80;;;10.50;;
3447;SDS011;1738;49.500;17.736;2023-12-28T09:55:55;16.33;;;11.00;;
3447;SDS011;1738;49.500;17.736;2023-12-28T09:58:21;20.07;;;11.10;;
3447;SDS011;1738;49.500;17.736;2023-12-28T10:00:47;16.90;;;10.10;;
3447;SDS011;1738;49.500;17.736;2023-12-28T10:03:13;19.57;;;12.23;;
3447;SDS011;1738;49.500;17.736;2023-12-28T10:05:40;19.50;;;11.60;;
3447;SDS011;1738;49.500;17.736;2023-12-28T10:08:04;20.30;;;11.90;;
3447;SDS011;1738;49.500;17.736;2023-12-28T10:10:30;18.30;;;12.40;;
3447;SDS011;1738;49.500;17.736;2023-12-28T10:12:56;17.60;;;11.03;;
3447;SDS011;1738;49.500;17.736;2023-12-28T10:15:22;19.50;;;10.70;;
3447;SDS011;1738;49.500;17.736;2023-12-28T10:17:48;18.00;;;12.40;;
3447;SDS011;1738;49.500;17.736;2023-12-28T10:20:14;18.70;;;11.53;;
3447;SDS011;1738;49.500;17.736;2023-12-28T10:22:40;16.57;;;12.23;;
3447;SDS011;1738;49.500;17.736;2023-12-28T10:25:06;18.17;;;11.90;;
3447;SDS011;1738;49.500;17.736;2023-12-28T10:27:32;32.40;;;15.73;;
3447;SDS011;1738;49.500;17.736;2023-12-28T10:29:57;17.40;;;12.10;;
3447;SDS011;1738;49.500;17.736;2023-12-28T10:32:23;16.07;;;10.37;;
3447;SDS011;1738;49.500;17.736;2023-12-28T10:34:49;14.23;;;10.32;;
3447;SDS011;1738;49.500;17.736;2023-12-28T10:37:16;18.03;;;10.20;;
3447;SDS011;1738;49.500;17.736;2023-12-28T10:39:41;17.20;;;10.03;;
3447;SDS011;1738;49.500;17.736;2023-12-28T10:42:08;16.97;;;11.80;;
3447;SDS011;1738;49.500;17.736;2023-12-28T10:44:33;19.47;;;11.20;;
3447;SDS011;1738;49.500;17.736;2023-12-28T10:46:59;13.97;;;9.00;;
3447;SDS011;1738;49.500;17.736;2023-12-28T10:49:24;18.53;;;10.70;;
3447;SDS011;1738;49.500;17.736;2023-12-28T10:51:51;20.83;;;11.37;;
3447;SDS011;1738;49.500;17.736;2023-12-28T10:54:23;15.30;;;10.70;;
3447;SDS011;1738;49.500;17.736;2023-12-28T10:56:46;17.43;;;11.23;;
3447;SDS011;1738;49.500;17.736;2023-12-28T10:59:17;14.53;;;10.70;;
3447;SDS011;1738;49.500;17.736;2023-12-28T11:01:41;17.80;;;11.17;;
3447;SDS011;1738;49.500;17.736;2023-12-28T11:04:07;19.20;;;10.30;;
3447;SDS011;1738;49.500;17.736;2023-12-28T11:06:32;14.73;;;9.73;;
3447;SDS011;1738;49.500;17.736;2023-12-28T11:08:58;18.40;;;10.83;;
3447;SDS011;1738;49.500;17.736;2023-12-28T11:11:24;18.47;;;11.03;;
3447;SDS011;1738;49.500;17.736;2023-12-28T11:13:50;17.27;;;11.75;;
3447;SDS011;1738;49.500;17.736;2023-12-28T11:16:16;15.33;;;10.30;;
3447;SDS011;1738;49.500;17.736;2023-12-28T11:18:42;18.73;;;11.50;;
3447;SDS011;1738;49.500;17.736;2023-12-28T11:21:08;17.73;;;12.30;;
3447;SDS011;1738;49.500;17.736;2023-12-28T11:23:34;17.60;;;10.93;;
3447;SDS011;1738;49.500;17.736;2023-12-28T11:26:00;17.30;;;11.90;;
3447;SDS011;1738;49.500;17.736;2023-12-28T11:28:26;16.93;;;11.77;;
3447;SDS011;1738;49.500;17.736;2023-12-28T11:30:52;13.93;;;10.10;;
3447;SDS011;1738;49.500;17.736;2023-12-28T11:33:17;16.03;;;10.43;;
3447;SDS011;1738;49.500;17.736;2023-12-28T11:35:43;16.87;;;10.77;;
3447;SDS011;1738;49.500;17.736;2023-12-28T11:38:10;15.77;;;10.60;;
3447;SDS011;1738;49.500;17.736;2023-12-28T11:40:39;21.27;;;12.53;;
3447;SDS011;1738;49.500;17.736;2023-12-28T11:43:05;16.77;;;11.10;;
3447;SDS011;1738;49.500;17.736;2023-12-28T11:45:31;19.12;;;10.55;;
3447;SDS011;1738;49.500;17.736;2023-12-28T11:47:58;18.87;;;11.73;;
3447;SDS011;1738;49.500;17.736;2023-12-28T11:50:23;18.67;;;10.17;;
3447;SDS011;1738;49.500;17.736;2023-12-28T11:52:50;20.20;;;10.83;;
3447;SDS011;1738;49.500;17.736;2023-12-28T11:55:21;18.50;;;11.03;;
3447;SDS011;1738;49.500;17.736;2023-12-28T11:57:46;15.70;;;10.67;;
3447;SDS011;1738;49.500;17.736;2023-12-28T12:00:12;14.80;;;10.30;;
3447;SDS011;1738;49.500;17.736;2023-12-28T12:02:42;18.00;;;11.93;;
3447;SDS011;1738;49.500;17.736;2023-12-28T12:05:04;18.43;;;12.27;;
3447;SDS011;1738;49.500;17.736;2023-12-28T12:07:30;17.63;;;11.53;;
3447;SDS011;1738;49.500;17.736;2023-12-28T12:09:56;19.27;;;12.60;;
3447;SDS011;1738;49.500;17.736;2023-12-28T12:12:22;18.13;;;10.93;;
3447;SDS011;1738;49.500;17.736;2023-12-28T12:14:47;15.70;;;10.40;;
3447;SDS011;1738;49.500;17.736;2023-12-28T12:17:13;16.37;;;11.10;;
3447;SDS011;1738;49.500;17.736;2023-12-28T12:19:39;15.20;;;10.67;;
3447;SDS011;1738;49.500;17.736;2023-12-28T12:22:05;14.77;;;10.30;;
3447;SDS011;1738;49.500;17.736;2023-12-28T12:24:31;15.93;;;10.83;;
3447;SDS011;1738;49.500;17.736;2023-12-28T12:26:57;20.90;;;12.00;;
3447;SDS011;1738;49.500;17.736;2023-12-28T12:29:23;20.90;;;11.70;;
3447;SDS011;1738;49.500;17.736;2023-12-28T12:31:48;18.90;;;12.30;;
3447;SDS011;1738;49.500;17.736;2023-12-28T12:34:15;23.17;;;11.10;;
3447;SDS011;1738;49.500;17.736;2023-12-28T12:36:41;20.50;;;12.90;;
3447;SDS011;1738;49.500;17.736;2023-12-28T12:39:09;16.07;;;11.43;;
3447;SDS011;1738;49.500;17.736;2023-12-28T12:41:33;21.13;;;12.23;;
3447;SDS011;1738;49.500;17.736;2023-12-28T12:43:59;24.13;;;11.60;;
3447;SDS011;1738;49.500;17.736;2023-12-28T12:46:24;19.10;;;12.83;;
3447;SDS011;1738;49.500;17.736;2023-12-28T12:48:55;24.13;;;11.90;;
3447;SDS011;1738;49.500;17.736;2023-12-28T12:51:20;19.08;;;13.10;;
3447;SDS011;1738;49.500;17.736;2023-12-28T12:53:47;18.62;;;12.52;;
3447;SDS011;1738;49.500;17.736;2023-12-28T12:56:12;18.20;;;12.40;;
3447;SDS011;1738;49.500;17.736;2023-12-28T12:58:38;19.60;;;12.27;;
3447;SDS011;1738;49.500;17.736;2023-12-28T13:01:04;22.03;;;12.00;;
3447;SDS011;1738;49.500;17.736;2023-12-28T13:03:30;22.20;;;12.43;;
3447;SDS011;1738;49.500;17.736;2023-12-28T13:05:56;19.13;;;11.27;;
3447;SDS011;1738;49.500;17.736;2023-12-28T13:08:22;20.70;;;12.13;;
3447;SDS011;1738;49.500;17.736;2023-12-28T13:10:48;23.08;;;12.40;;
3447;SDS011;1738;49.500;17.736;2023-12-28T13:13:13;21.87;;;12.47;;
3447;SDS011;1738;49.500;17.736;2023-12-28T13:15:39;21.30;;;12.75;;
3447;SDS011;1738;49.500;17.736;2023-12-28T13:18:05;18.43;;;12.10;;
3447;SDS011;1738;49.500;17.736;2023-12-28T13:20:31;17.60;;;11.80;;
3447;SDS011;1738;49.500;17.736;2023-12-28T13:22:57;21.30;;;11.93;;
3447;SDS011;1738;49.500;17.736;2023-12-28T13:25:23;18.23;;;11.70;;
3447;SDS011;1738;49.500;17.736;2023-12-28T13:27:48;17.90;;;12.60;;
3447;SDS011;1738;49.500;17.736;2023-12-28T13:30:14;19.97;;;11.73;;
3447;SDS011;1738;49.500;17.736;2023-12-28T13:32:40;20.80;;;12.23;;
3447;SDS011;1738;49.500;17.736;2023-12-28T13:35:06;20.57;;;13.37;;
3447;SDS011;1738;49.500;17.736;2023-12-28T13:37:32;16.70;;;11.90;;
3447;SDS011;1738;49.500;17.736;2023-12-28T13:39:58;18.47;;;11.60;;
3447;SDS011;1738;49.500;17.736;2023-12-28T13:42:24;20.37;;;11.17;;
3447;SDS011;1738;49.500;17.736;2023-12-28T13:44:50;20.63;;;13.30;;
3447;SDS011;1738;49.500;17.736;2023-12-28T13:47:16;18.87;;;11.70;;
3447;SDS011;1738;49.500;17.736;2023-12-28T13:49:42;17.87;;;12.37;;
3447;SDS011;1738;49.500;17.736;2023-12-28T13:52:07;18.23;;;10.93;;
3447;SDS011;1738;49.500;17.736;2023-12-28T13:54:33;18.23;;;12.57;;
3447;SDS011;1738;49.500;17.736;2023-12-28T13:56:59;19.10;;;12.80;;
3447;SDS011;1738;49.500;17.736;2023-12-28T13:59:25;20.50;;;12.80;;
3447;SDS011;1738;49.500;17.736;2023-12-28T14:01:51;22.87;;;13.77;;
3447;SDS011;1738;49.500;17.736;2023-12-28T14:04:17;20.40;;;11.97;;
3447;SDS011;1738;49.500;17.736;2023-12-28T14:06:42;20.83;;;11.50;;
3447;SDS011;1738;49.500;17.736;2023-12-28T14:09:08;38.97;;;15.10;;
3447;SDS011;1738;49.500;17.736;2023-12-28T14:11:34;20.67;;;12.37;;
3447;SDS011;1738;49.500;17.736;2023-12-28T14:14:00;21.10;;;13.70;;
3447;SDS011;1738;49.500;17.736;2023-12-28T14:16:26;19.13;;;12.50;;
3447;SDS011;1738;49.500;17.736;2023-12-28T14:18:52;20.10;;;13.10;;
3447;SDS011;1738;49.500;17.736;2023-12-28T14:21:18;23.17;;;12.00;;
3447;SDS011;1738;49.500;17.736;2023-12-28T14:23:44;21.87;;;12.00;;
3447;SDS011;1738;49.500;17.736;2023-12-28T14:26:13;21.10;;;12.70;;
3447;SDS011;1738;49.500;17.736;2023-12-28T14:28:37;21.47;;;12.97;;
3447;SDS011;1738;49.500;17.736;2023-12-28T14:31:03;21.20;;;11.70;;